Time;durP1;ratioP1;P1;durP2;ratioP2;P2;SDS_P1;SDS_P2;PMS_P1;PMS_P2;Temp;Humidity;BMP_temperature;BMP_pressure;BME280_temperature;BME280_humidity;BME280_pressure;Samples;Min_cycle;Max_cycle;Signal;HPM_P1;HPM_P2
2022/03/24 00:00:09;;;;;;;24.45;16.50;;;;;;;;;;5060352;28;20215;-60
2022/03/24 00:02:34;;;;;;;26.30;18.02;;;;;;;;;;5054873;28;20231;-60
2022/03/24 00:05:00;;;;;;;25.40;16.88;;;;;;;;;;5055489;28;20337;-60
2022/03/24 00:07:25;;;;;;;23.45;16.73;;;;;;;;;;5054966;28;20238;-59
2022/03/24 00:09:50;;;;;;;23.63;17.20;;;;;;;;;;5054538;28;20239;-60
2022/03/24 00:12:16;;;;;;;23.77;16.58;;;;;;;;;;5055332;28;20207;-60
2022/03/24 00:14:42;;;;;;;25.80;17.13;;;;;;;;;;5055351;28;20214;-60
2022/03/24 00:17:07;;;;;;;22.95;16.20;;;;;;;;;;5054210;28;20207;-59
2022/03/24 00:19:32;;;;;;;25.75;17.05;;;;;;;;;;5037579;28;20557;-59
2022/03/24 00:21:58;;;;;;;23.13;17.60;;;;;;;;;;5055189;28;20302;-60
2022/03/24 00:24:23;;;;;;;24.13;16.48;;;;;;;;;;5054188;28;20268;-59
2022/03/24 00:26:48;;;;;;;27.85;17.33;;;;;;;;;;5055222;28;20215;-60
2022/03/24 00:29:14;;;;;;;22.38;16.58;;;;;;;;;;5054483;28;20223;-60
2022/03/24 00:31:39;;;;;;;23.08;16.88;;;;;;;;;;5054193;28;20219;-60
2022/03/24 00:34:05;;;;;;;25.13;18.02;;;;;;;;;;5054784;28;20215;-60
2022/03/24 00:36:31;;;;;;;25.30;16.85;;;;;;;;;;5068085;28;20207;-60
2022/03/24 00:38:56;;;;;;;25.80;17.23;;;;;;;;;;5074198;28;20223;-60
2022/03/24 00:41:22;;;;;;;25.23;17.23;;;;;;;;;;5074639;28;20206;-60
2022/03/24 00:43:48;;;;;;;26.70;17.35;;;;;;;;;;5074467;28;20810;-60
2022/03/24 00:46:15;;;;;;;26.63;17.77;;;;;;;;;;5039368;28;20705;-60
2022/03/24 00:48:41;;;;;;;23.80;17.38;;;;;;;;;;5054741;28;20246;-60
2022/03/24 00:51:06;;;;;;;24.65;17.90;;;;;;;;;;5053337;28;20222;-60
2022/03/24 00:53:31;;;;;;;26.92;17.83;;;;;;;;;;5054621;28;20211;-59
2022/03/24 00:55:58;;;;;;;28.35;18.38;;;;;;;;;;5054262;28;20227;-60
2022/03/24 00:58:24;;;;;;;24.52;17.02;;;;;;;;;;5053479;28;20211;-59
2022/03/24 01:00:50;;;;;;;25.15;17.63;;;;;;;;;;5074749;28;20219;-59
2022/03/24 01:03:15;;;;;;;26.75;17.38;;;;;;;;;;5074288;28;20335;-59
2022/03/24 01:05:40;;;;;;;25.60;18.55;;;;;;;;;;5073400;28;20578;-60
2022/03/24 01:08:06;;;;;;;29.02;17.88;;;;;;;;;;5073962;28;20350;-59
2022/03/24 01:10:31;;;;;;;24.65;17.60;;;;;;;;;;5056470;28;20539;-59
2022/03/24 01:12:59;;;;;;;26.70;18.08;;;;;;;;;;5073833;28;20738;-60
2022/03/24 01:15:25;;;;;;;26.38;17.73;;;;;;;;;;5073655;28;20202;-60
2022/03/24 01:17:50;;;;;;;26.30;17.70;;;;;;;;;;5074217;28;20214;-60
2022/03/24 01:20:16;;;;;;;26.80;17.83;;;;;;;;;;5073009;28;20539;-60
2022/03/24 01:22:41;;;;;;;26.17;18.05;;;;;;;;;;5073961;28;20290;-60
2022/03/24 01:25:07;;;;;;;24.85;17.38;;;;;;;;;;5073501;28;20202;-60
2022/03/24 01:27:32;;;;;;;27.55;18.42;;;;;;;;;;5073404;28;20210;-59
2022/03/24 01:29:58;;;;;;;28.88;17.23;;;;;;;;;;5073952;28;20210;-60
2022/03/24 01:32:23;;;;;;;27.38;18.52;;;;;;;;;;5073710;28;20214;-60
2022/03/24 01:34:50;;;;;;;25.52;17.92;;;;;;;;;;5067372;28;20235;-60
2022/03/24 01:37:16;;;;;;;26.80;17.83;;;;;;;;;;5035883;28;20269;-60
2022/03/24 01:39:41;;;;;;;24.58;17.02;;;;;;;;;;5053892;28;20207;-60
2022/03/24 01:42:06;;;;;;;25.48;17.95;;;;;;;;;;5052542;28;20218;-60
2022/03/24 01:44:31;;;;;;;27.75;18.70;;;;;;;;;;5049975;28;20669;-60
2022/03/24 01:46:58;;;;;;;27.45;18.48;;;;;;;;;;5054963;28;20305;-60
2022/03/24 01:49:25;;;;;;;25.85;17.70;;;;;;;;;;5054536;28;20250;-60
2022/03/24 01:51:50;;;;;;;25.48;16.90;;;;;;;;;;5043923;28;20229;-60
2022/03/24 01:54:15;;;;;;;25.67;17.27;;;;;;;;;;5053640;28;20321;-59
2022/03/24 01:56:40;;;;;;;25.75;17.60;;;;;;;;;;5063550;28;20218;-60
2022/03/24 01:59:07;;;;;;;27.25;17.85;;;;;;;;;;5051127;28;20245;-60
2022/03/24 02:01:35;;;;;;;26.83;18.15;;;;;;;;;;5035810;28;20651;-60
2022/03/24 02:04:00;;;;;;;27.02;18.02;;;;;;;;;;5055095;28;20233;-59
2022/03/24 02:06:26;;;;;;;24.30;17.17;;;;;;;;;;5041703;28;20681;-59
2022/03/24 02:08:51;;;;;;;26.42;17.05;;;;;;;;;;5061982;28;20597;-60
2022/03/24 02:11:16;;;;;;;27.75;18.05;;;;;;;;;;5062699;28;20232;-60
2022/03/24 02:13:42;;;;;;;25.75;17.45;;;;;;;;;;5062872;28;20576;-60
2022/03/24 02:16:10;;;;;;;26.27;17.05;;;;;;;;;;5061490;28;20214;-60
2022/03/24 02:18:35;;;;;;;25.92;17.05;;;;;;;;;;5060977;28;20288;-60
2022/03/24 02:21:00;;;;;;;24.10;16.80;;;;;;;;;;5040633;28;20767;-60
2022/03/24 02:23:26;;;;;;;27.45;18.05;;;;;;;;;;5053595;28;20241;-60
2022/03/24 02:25:52;;;;;;;26.77;16.38;;;;;;;;;;5054320;28;20234;-60
2022/03/24 02:28:17;;;;;;;24.50;17.08;;;;;;;;;;5056491;28;20832;-59
2022/03/24 02:30:44;;;;;;;25.10;17.17;;;;;;;;;;5061556;28;20465;-60
2022/03/24 02:33:11;;;;;;;27.70;17.52;;;;;;;;;;5062274;28;20569;-60
2022/03/24 02:35:36;;;;;;;27.40;17.63;;;;;;;;;;5051332;28;20211;-60
2022/03/24 02:38:02;;;;;;;26.63;18.20;;;;;;;;;;5041597;28;20693;-60
2022/03/24 02:40:27;;;;;;;31.63;17.80;;;;;;;;;;5042731;28;20219;-60
2022/03/24 02:42:53;;;;;;;26.35;16.85;;;;;;;;;;5042620;28;20206;-60
2022/03/24 02:45:18;;;;;;;26.10;17.33;;;;;;;;;;5033914;28;20545;-60
2022/03/24 02:47:44;;;;;;;25.98;17.38;;;;;;;;;;5034451;28;20203;-60
2022/03/24 02:50:09;;;;;;;32.00;17.75;;;;;;;;;;5035218;28;20215;-60
2022/03/24 02:52:35;;;;;;;24.95;17.90;;;;;;;;;;5041257;28;20207;-60
2022/03/24 02:55:00;;;;;;;26.50;17.95;;;;;;;;;;5062061;28;20613;-60
2022/03/24 02:57:25;;;;;;;28.17;17.83;;;;;;;;;;5061526;28;20238;-59
2022/03/24 02:59:50;;;;;;;26.63;18.90;;;;;;;;;;5049412;28;20302;-59
2022/03/24 03:02:16;;;;;;;24.35;17.45;;;;;;;;;;5042271;28;20227;-60
2022/03/24 03:04:43;;;;;;;27.08;18.20;;;;;;;;;;5041655;28;20203;-59
2022/03/24 03:07:08;;;;;;;29.65;17.80;;;;;;;;;;5037106;28;20211;-60
2022/03/24 03:09:34;;;;;;;29.27;17.88;;;;;;;;;;5053552;28;20228;-60
2022/03/24 03:12:00;;;;;;;27.98;17.52;;;;;;;;;;5035392;28;20242;-60
2022/03/24 03:14:25;;;;;;;28.10;18.30;;;;;;;;;;5038523;28;20656;-60
2022/03/24 03:16:50;;;;;;;29.50;18.02;;;;;;;;;;5042402;28;20215;-60
2022/03/24 03:19:17;;;;;;;30.35;19.35;;;;;;;;;;5041383;28;20222;-60
2022/03/24 03:21:43;;;;;;;28.65;18.38;;;;;;;;;;5041685;28;20424;-60
2022/03/24 03:24:08;;;;;;;27.30;19.00;;;;;;;;;;5041937;28;20294;-60
2022/03/24 03:26:34;;;;;;;28.92;19.75;;;;;;;;;;5041262;28;20302;-60
2022/03/24 03:28:59;;;;;;;26.55;18.75;;;;;;;;;;5039952;28;20230;-59
2022/03/24 03:31:24;;;;;;;26.95;19.88;;;;;;;;;;5033721;28;20686;-60
2022/03/24 03:33:51;;;;;;;27.38;19.13;;;;;;;;;;5033402;28;20219;-60
2022/03/24 03:36:18;;;;;;;28.00;19.67;;;;;;;;;;5035894;28;20211;-60
2022/03/24 03:38:44;;;;;;;29.33;19.38;;;;;;;;;;5041914;28;20267;-59
2022/03/24 03:41:10;;;;;;;30.75;18.55;;;;;;;;;;5041127;28;20298;-60
2022/03/24 03:43:35;;;;;;;29.20;19.80;;;;;;;;;;5042058;28;20298;-60
2022/03/24 03:46:01;;;;;;;28.58;19.90;;;;;;;;;;5042632;28;20211;-60
2022/03/24 03:48:26;;;;;;;28.25;20.08;;;;;;;;;;5041056;28;20230;-60
2022/03/24 03:50:51;;;;;;;30.42;19.65;;;;;;;;;;5042167;28;20690;-60
2022/03/24 03:53:17;;;;;;;30.35;20.10;;;;;;;;;;5039922;28;20222;-60
2022/03/24 03:55:42;;;;;;;29.27;19.45;;;;;;;;;;5052524;28;20272;-60
2022/03/24 03:58:07;;;;;;;27.38;19.65;;;;;;;;;;5053771;28;20207;-60
2022/03/24 04:03:17;;;;;;;28.38;19.10;;;;;;;;;;5041325;28;20261;-60
2022/03/24 04:05:43;;;;;;;32.00;20.83;;;;;;;;;;5041834;28;20580;-60
2022/03/24 04:08:10;;;;;;;28.95;20.80;;;;;;;;;;5040593;28;20360;-60
2022/03/24 04:10:38;;;;;;;30.08;19.83;;;;;;;;;;5043499;28;20232;-60
2022/03/24 04:13:04;;;;;;;30.60;20.58;;;;;;;;;;5060688;28;20219;-60
2022/03/24 04:15:29;;;;;;;30.27;20.55;;;;;;;;;;5048263;28;20821;-60
2022/03/24 04:17:55;;;;;;;30.98;20.60;;;;;;;;;;5033301;28;20223;-60
2022/03/24 04:20:21;;;;;;;29.70;20.42;;;;;;;;;;5033917;28;20230;-60
2022/03/24 04:22:48;;;;;;;31.50;19.88;;;;;;;;;;5038679;28;20234;-60
2022/03/24 04:25:13;;;;;;;28.52;19.95;;;;;;;;;;5060267;28;20538;-59
2022/03/24 04:27:38;;;;;;;28.77;21.25;;;;;;;;;;5043274;28;20229;-60
2022/03/24 04:30:04;;;;;;;28.75;21.05;;;;;;;;;;5059829;28;20556;-60
2022/03/24 04:32:30;;;;;;;31.92;21.33;;;;;;;;;;5063047;28;20218;-60
2022/03/24 04:34:55;;;;;;;31.48;20.95;;;;;;;;;;5058590;28;20211;-60
2022/03/24 04:37:21;;;;;;;30.58;21.10;;;;;;;;;;5041183;28;20215;-60
2022/03/24 04:39:46;;;;;;;29.63;20.38;;;;;;;;;;5036940;28;20305;-60
2022/03/24 04:42:11;;;;;;;30.60;20.88;;;;;;;;;;5036674;28;20460;-60
2022/03/24 04:44:36;;;;;;;29.38;20.70;;;;;;;;;;5039783;28;20210;-60
2022/03/24 04:47:02;;;;;;;29.23;20.92;;;;;;;;;;5044192;28;20353;-60
2022/03/24 04:49:27;;;;;;;30.08;20.33;;;;;;;;;;5044926;28;20222;-60
2022/03/24 04:51:53;;;;;;;28.25;20.73;;;;;;;;;;5043923;28;20686;-59
2022/03/24 04:54:19;;;;;;;29.88;19.70;;;;;;;;;;5059180;28;20589;-60
2022/03/24 04:56:44;;;;;;;29.23;20.25;;;;;;;;;;5064130;28;20241;-60
2022/03/24 04:59:09;;;;;;;30.27;21.17;;;;;;;;;;5056182;28;20326;-60
2022/03/24 05:01:35;;;;;;;31.35;21.17;;;;;;;;;;5055760;28;20645;-60
2022/03/24 05:04:00;;;;;;;34.88;21.40;;;;;;;;;;5055870;28;20489;-60
2022/03/24 05:06:26;;;;;;;31.77;21.55;;;;;;;;;;5053403;28;20298;-60
2022/03/24 05:08:51;;;;;;;30.88;20.98;;;;;;;;;;5044540;28;20292;-60
2022/03/24 05:11:16;;;;;;;31.73;21.13;;;;;;;;;;5043643;28;20211;-60
2022/03/24 05:13:42;;;;;;;30.55;21.73;;;;;;;;;;5044428;28;20560;-60
2022/03/24 05:16:07;;;;;;;32.40;21.10;;;;;;;;;;5043993;28;20219;-60
2022/03/24 05:18:32;;;;;;;34.63;22.08;;;;;;;;;;5043580;28;20689;-60
2022/03/24 05:20:58;;;;;;;35.47;22.27;;;;;;;;;;5044675;28;20222;-60
2022/03/24 05:23:23;;;;;;;29.75;21.52;;;;;;;;;;5037838;28;20298;-60
2022/03/24 05:25:48;;;;;;;31.90;21.63;;;;;;;;;;5035959;28;20219;-59
2022/03/24 05:28:15;;;;;;;29.80;21.23;;;;;;;;;;5035672;28;20483;-60
2022/03/24 05:30:40;;;;;;;30.33;21.25;;;;;;;;;;5041780;28;20242;-60
2022/03/24 05:33:05;;;;;;;33.22;21.60;;;;;;;;;;5042888;28;20266;-60
2022/03/24 05:35:35;;;;;;;32.17;21.42;;;;;;;;;;5044033;28;20681;-60
2022/03/24 05:38:00;;;;;;;29.48;21.38;;;;;;;;;;5044144;28;20219;-60
2022/03/24 05:40:26;;;;;;;30.67;20.95;;;;;;;;;;5043014;28;20211;-60
2022/03/24 05:42:51;;;;;;;32.78;21.05;;;;;;;;;;5063100;28;20232;-60
2022/03/24 05:45:16;;;;;;;32.97;22.13;;;;;;;;;;5049406;28;20236;-60
2022/03/24 05:47:42;;;;;;;33.30;24.50;;;;;;;;;;5034081;28;20446;-59
2022/03/24 05:50:08;;;;;;;31.58;22.58;;;;;;;;;;5035163;28;20253;-59
2022/03/24 05:52:33;;;;;;;30.40;21.00;;;;;;;;;;5039477;28;20265;-60
2022/03/24 05:54:58;;;;;;;32.13;23.00;;;;;;;;;;5042817;28;20223;-59
2022/03/24 05:57:23;;;;;;;32.42;22.10;;;;;;;;;;5044728;28;20238;-59
2022/03/24 05:59:49;;;;;;;29.80;21.60;;;;;;;;;;5041885;28;20242;-59
2022/03/24 06:02:14;;;;;;;28.50;21.83;;;;;;;;;;5042290;28;20210;-59
2022/03/24 06:04:42;;;;;;;33.08;22.13;;;;;;;;;;5045063;28;20206;-59
2022/03/24 06:07:08;;;;;;;31.08;22.38;;;;;;;;;;5062019;28;20759;-59
2022/03/24 06:09:34;;;;;;;30.20;23.08;;;;;;;;;;5053920;28;20223;-59
2022/03/24 06:12:00;;;;;;;34.78;24.90;;;;;;;;;;5055148;28;20214;-58
2022/03/24 06:14:25;;;;;;;32.30;22.80;;;;;;;;;;5054248;28;20244;-60
2022/03/24 06:16:50;;;;;;;35.72;22.58;;;;;;;;;;5046225;28;20685;-60
2022/03/24 06:19:16;;;;;;;32.30;23.33;;;;;;;;;;5041686;28;20452;-59
2022/03/24 06:21:41;;;;;;;30.25;22.33;;;;;;;;;;5041491;28;20690;-59
2022/03/24 06:24:07;;;;;;;32.90;22.80;;;;;;;;;;5042336;28;20307;-60
2022/03/24 06:26:32;;;;;;;32.65;23.38;;;;;;;;;;5043857;28;20692;-59
2022/03/24 06:28:57;;;;;;;35.40;24.30;;;;;;;;;;5062192;28;20230;-59
2022/03/24 06:31:23;;;;;;;31.90;22.77;;;;;;;;;;5037643;28;20218;-59
2022/03/24 06:33:48;;;;;;;34.47;22.70;;;;;;;;;;5053989;28;20735;-59
2022/03/24 06:36:14;;;;;;;33.80;22.90;;;;;;;;;;5031484;28;20716;-59
2022/03/24 06:38:39;;;;;;;33.63;23.27;;;;;;;;;;5040478;28;20302;-59
2022/03/24 06:41:05;;;;;;;30.95;22.70;;;;;;;;;;5042190;28;20297;-60
2022/03/24 06:43:30;;;;;;;31.17;22.98;;;;;;;;;;5043209;28;20228;-59
2022/03/24 06:45:57;;;;;;;30.60;22.08;;;;;;;;;;5048402;28;20207;-59
2022/03/24 06:48:22;;;;;;;32.13;22.45;;;;;;;;;;5041248;28;20227;-59
2022/03/24 06:50:49;;;;;;;29.17;21.10;;;;;;;;;;5060953;28;20795;-58
2022/03/24 06:53:14;;;;;;;31.25;22.35;;;;;;;;;;5051555;28;20203;-59
2022/03/24 06:55:40;;;;;;;29.50;22.30;;;;;;;;;;5034386;28;20262;-59
2022/03/24 06:58:06;;;;;;;32.63;22.27;;;;;;;;;;5033046;28;20222;-59
2022/03/24 07:00:31;;;;;;;31.50;23.15;;;;;;;;;;5037494;28;20249;-59
2022/03/24 07:02:58;;;;;;;31.38;23.42;;;;;;;;;;5041947;28;20575;-59
2022/03/24 07:05:24;;;;;;;32.55;22.85;;;;;;;;;;5040842;28;20294;-59
2022/03/24 07:07:49;;;;;;;34.50;22.10;;;;;;;;;;5041939;28;20214;-59
2022/03/24 07:10:15;;;;;;;30.15;22.48;;;;;;;;;;5041445;28;20222;-59
2022/03/24 07:12:40;;;;;;;32.97;22.88;;;;;;;;;;5041807;28;20226;-59
2022/03/24 07:15:07;;;;;;;30.45;23.63;;;;;;;;;;5040530;28;20345;-60
2022/03/24 07:17:33;;;;;;;29.67;23.35;;;;;;;;;;5035569;28;20309;-59
2022/03/24 07:19:58;;;;;;;34.83;22.85;;;;;;;;;;5052723;28;20214;-59
2022/03/24 07:22:23;;;;;;;29.73;22.63;;;;;;;;;;5054024;28;20263;-59
2022/03/24 07:24:49;;;;;;;32.75;23.45;;;;;;;;;;5041131;28;20218;-59
2022/03/24 07:27:14;;;;;;;35.00;23.17;;;;;;;;;;5041453;28;20211;-60
2022/03/24 07:29:40;;;;;;;31.42;23.23;;;;;;;;;;5041998;28;20402;-59
2022/03/24 07:32:05;;;;;;;32.15;23.70;;;;;;;;;;5040785;28;20252;-59
2022/03/24 07:34:31;;;;;;;31.70;23.23;;;;;;;;;;5041551;28;20214;-59
2022/03/24 07:36:56;;;;;;;29.58;22.58;;;;;;;;;;5041786;28;20238;-59
2022/03/24 07:39:21;;;;;;;29.58;22.67;;;;;;;;;;5034852;28;20210;-59
2022/03/24 07:41:46;;;;;;;30.80;22.83;;;;;;;;;;5034460;28;20274;-59
2022/03/24 07:44:12;;;;;;;31.30;22.45;;;;;;;;;;5034933;28;20670;-60
2022/03/24 07:46:37;;;;;;;29.55;22.55;;;;;;;;;;5038347;28;20238;-59
2022/03/24 07:49:04;;;;;;;28.88;23.25;;;;;;;;;;5040962;28;20721;-59
2022/03/24 07:51:31;;;;;;;33.30;23.17;;;;;;;;;;5041901;28;20764;-59
2022/03/24 07:54:02;;;;;;;31.70;22.73;;;;;;;;;;5048630;28;20219;-59
2022/03/24 07:56:28;;;;;;;31.17;24.08;;;;;;;;;;5060992;28;20305;-59
2022/03/24 07:58:53;;;;;;;31.50;23.65;;;;;;;;;;5056959;28;20302;-59
2022/03/24 08:01:26;;;;;;;29.63;22.90;;;;;;;;;;5049351;28;20206;-58
2022/03/24 08:03:52;;;;;;;33.47;24.40;;;;;;;;;;5052226;28;20214;-59
2022/03/24 08:06:17;;;;;;;30.40;24.63;;;;;;;;;;5070719;28;20283;-59
2022/03/24 08:08:43;;;;;;;31.20;24.35;;;;;;;;;;5072238;28;20677;-58
2022/03/24 08:11:08;;;;;;;31.58;24.13;;;;;;;;;;5091047;28;20217;-59
2022/03/24 08:13:33;;;;;;;29.00;23.52;;;;;;;;;;5095683;28;20650;-58
2022/03/24 08:15:58;;;;;;;32.58;24.00;;;;;;;;;;5094759;28;20216;-59
2022/03/24 08:18:24;;;;;;;29.60;24.70;;;;;;;;;;5094529;28;20205;-58
2022/03/24 08:20:51;;;;;;;29.05;24.55;;;;;;;;;;5095294;28;20296;-59
2022/03/24 08:23:17;;;;;;;30.40;24.30;;;;;;;;;;5094198;28;20701;-59
2022/03/24 08:25:44;;;;;;;28.85;23.90;;;;;;;;;;5095180;28;20213;-59
2022/03/24 08:28:10;;;;;;;31.83;24.73;;;;;;;;;;5094123;28;20326;-59
2022/03/24 08:30:36;;;;;;;31.83;24.38;;;;;;;;;;5095336;28;20285;-59
2022/03/24 08:33:01;;;;;;;34.30;25.42;;;;;;;;;;5094362;28;20301;-60
2022/03/24 08:35:26;;;;;;;32.45;25.20;;;;;;;;;;5079001;28;20537;-59
2022/03/24 08:37:52;;;;;;;30.42;24.50;;;;;;;;;;5074517;28;20241;-58
2022/03/24 08:40:17;;;;;;;32.55;26.05;;;;;;;;;;5074285;28;20210;-59
2022/03/24 08:42:42;;;;;;;27.88;23.52;;;;;;;;;;5074179;28;20210;-58
2022/03/24 08:45:09;;;;;;;34.50;25.80;;;;;;;;;;5048719;28;20213;-60
2022/03/24 08:47:34;;;;;;;33.97;27.20;;;;;;;;;;5036525;28;20207;-59
2022/03/24 08:49:59;;;;;;;34.92;27.55;;;;;;;;;;5054069;28;20230;-59
2022/03/24 08:52:27;;;;;;;35.10;26.77;;;;;;;;;;5054230;28;20219;-58
2022/03/24 08:54:52;;;;;;;31.48;24.65;;;;;;;;;;5073938;28;20222;-59
2022/03/24 08:57:22;;;;;;;33.25;27.33;;;;;;;;;;5055554;28;20404;-59
2022/03/24 08:59:48;;;;;;;34.58;27.10;;;;;;;;;;5062496;28;20269;-59
2022/03/24 09:02:13;;;;;;;34.67;27.25;;;;;;;;;;5058087;28;20694;-59
2022/03/24 09:04:39;;;;;;;37.80;28.25;;;;;;;;;;5053557;28;20222;-59
2022/03/24 09:07:04;;;;;;;37.42;28.75;;;;;;;;;;5071098;28;20344;-60
2022/03/24 09:09:29;;;;;;;36.42;27.13;;;;;;;;;;5068961;28;20230;-59
2022/03/24 09:11:55;;;;;;;36.15;26.83;;;;;;;;;;5071722;28;20203;-59
2022/03/24 09:14:20;;;;;;;36.15;26.48;;;;;;;;;;5073904;28;20213;-58
2022/03/24 09:16:46;;;;;;;45.33;29.23;;;;;;;;;;5074596;28;20210;-58
2022/03/24 09:19:12;;;;;;;36.95;29.60;;;;;;;;;;5071117;28;20222;-59
2022/03/24 09:21:37;;;;;;;35.03;29.33;;;;;;;;;;5074112;28;20203;-59
2022/03/24 09:24:03;;;;;;;34.58;29.25;;;;;;;;;;5073595;28;20237;-59
2022/03/24 09:26:28;;;;;;;38.65;29.70;;;;;;;;;;5073236;28;20689;-59
2022/03/24 09:28:53;;;;;;;40.10;30.38;;;;;;;;;;5073950;28;20214;-59
2022/03/24 09:31:19;;;;;;;34.75;28.38;;;;;;;;;;5073075;28;20221;-59
2022/03/24 09:33:44;;;;;;;38.10;28.05;;;;;;;;;;5073371;28;20252;-59
2022/03/24 09:36:11;;;;;;;33.72;28.58;;;;;;;;;;5073487;28;20222;-59
2022/03/24 09:38:36;;;;;;;35.00;28.08;;;;;;;;;;5073119;28;20215;-59
2022/03/24 09:41:01;;;;;;;38.42;27.48;;;;;;;;;;5073633;28;20214;-59
2022/03/24 09:43:27;;;;;;;41.40;27.70;;;;;;;;;;5073677;28;20224;-58
2022/03/24 09:45:52;;;;;;;37.95;25.95;;;;;;;;;;5041292;28;20207;-58
2022/03/24 09:48:17;;;;;;;37.33;26.05;;;;;;;;;;5035101;28;20226;-58
2022/03/24 09:50:44;;;;;;;34.67;25.25;;;;;;;;;;5053678;28;20214;-59
2022/03/24 09:53:10;;;;;;;32.60;25.05;;;;;;;;;;5052556;28;20215;-59
2022/03/24 09:55:36;;;;;;;36.38;25.77;;;;;;;;;;5053242;28;20756;-58
2022/03/24 09:58:02;;;;;;;27.60;17.30;;;;;;;;;;5046362;28;20569;-59
2022/03/24 10:00:27;;;;;;;25.85;16.70;;;;;;;;;;5073638;28;20202;-58
2022/03/24 10:03:06;;;;;;;26.48;16.80;;;;;;;;;;5093360;28;20217;-58
2022/03/24 10:05:31;;;;;;;24.73;17.83;;;;;;;;;;5093274;28;20213;-59
2022/03/24 10:08:02;;;;;;;27.45;17.65;;;;;;;;;;5092679;28;20202;-58
2022/03/24 10:10:27;;;;;;;27.13;16.90;;;;;;;;;;5093101;28;20217;-59
2022/03/24 10:12:53;;;;;;;27.02;17.33;;;;;;;;;;5070272;28;20229;-58
2022/03/24 10:15:18;;;;;;;27.65;17.13;;;;;;;;;;5051872;28;20215;-59
2022/03/24 10:17:53;;;;;;;30.67;17.00;;;;;;;;;;5052941;28;20230;-58
2022/03/24 10:20:18;;;;;;;30.05;17.65;;;;;;;;;;5052348;28;20278;-58
2022/03/24 10:22:57;;;;;;;29.92;17.23;;;;;;;;;;5052534;28;20231;-59
2022/03/24 10:25:23;;;;;;;26.90;17.08;;;;;;;;;;5052607;28;20207;-58
2022/03/24 10:27:49;;;;;;;28.30;17.70;;;;;;;;;;5051999;28;20671;-58
2022/03/24 10:30:15;;;;;;;31.58;17.90;;;;;;;;;;5052002;28;20211;-58
2022/03/24 10:32:40;;;;;;;27.75;18.42;;;;;;;;;;5052662;28;20211;-58
2022/03/24 10:35:08;;;;;;;29.00;17.67;;;;;;;;;;5051501;28;20218;-59
2022/03/24 10:37:33;;;;;;;33.25;17.83;;;;;;;;;;5052712;28;20218;-58
2022/03/24 10:40:02;;;;;;;29.20;17.92;;;;;;;;;;5052710;28;20207;-59
2022/03/24 10:42:28;;;;;;;26.70;17.92;;;;;;;;;;5051352;28;20681;-58
2022/03/24 10:45:04;;;;;;;25.75;18.55;;;;;;;;;;5058283;28;20210;-58
2022/03/24 10:47:37;;;;;;;30.00;18.15;;;;;;;;;;5072081;28;20205;-59
2022/03/24 10:50:18;;;;;;;27.05;19.15;;;;;;;;;;5053526;28;20233;-59
2022/03/24 10:52:43;;;;;;;29.88;18.65;;;;;;;;;;5072452;28;20563;-58
2022/03/24 10:55:08;;;;;;;31.77;19.63;;;;;;;;;;5071834;28;20222;-58
2022/03/24 10:57:34;;;;;;;27.20;19.63;;;;;;;;;;5071633;28;20343;-58
2022/03/24 11:00:01;;;;;;;28.88;19.13;;;;;;;;;;5058590;28;20211;-58
2022/03/24 11:02:26;;;;;;;29.75;18.55;;;;;;;;;;5051822;28;20286;-58
2022/03/24 11:04:51;;;;;;;29.50;19.00;;;;;;;;;;5051686;28;20294;-58
2022/03/24 11:07:23;;;;;;;26.17;19.58;;;;;;;;;;5051647;28;20207;-58
2022/03/24 11:09:48;;;;;;;23.05;16.58;;;;;;;;;;5051419;28;20265;-58
2022/03/24 11:12:24;;;;;;;27.40;17.20;;;;;;;;;;5057279;28;20206;-59
2022/03/24 11:14:51;;;;;;;27.08;18.80;;;;;;;;;;5072087;28;20764;-58
2022/03/24 11:17:17;;;;;;;27.50;18.63;;;;;;;;;;5053281;28;20293;-59
2022/03/24 11:19:43;;;;;;;24.20;17.40;;;;;;;;;;5054261;28;20773;-58
2022/03/24 11:22:10;;;;;;;26.08;16.70;;;;;;;;;;5071423;28;20222;-59
2022/03/24 11:24:35;;;;;;;25.52;17.95;;;;;;;;;;5071511;28;20268;-58
2022/03/24 11:27:01;;;;;;;23.77;18.50;;;;;;;;;;5053719;28;20214;-59
2022/03/24 11:29:26;;;;;;;28.13;20.90;;;;;;;;;;5071860;28;20230;-58
2022/03/24 11:31:52;;;;;;;26.92;20.33;;;;;;;;;;5053346;28;20230;-58
2022/03/24 11:34:17;;;;;;;29.75;21.10;;;;;;;;;;5053200;28;20210;-58
2022/03/24 11:36:43;;;;;;;27.70;20.33;;;;;;;;;;5034032;28;20673;-58
2022/03/24 11:39:09;;;;;;;24.20;18.02;;;;;;;;;;5070410;28;20304;-59
2022/03/24 11:41:39;;;;;;;28.00;18.88;;;;;;;;;;5054697;28;20210;-58
2022/03/24 11:44:06;;;;;;;26.13;17.98;;;;;;;;;;5075550;28;20210;-58
2022/03/24 11:46:34;;;;;;;24.75;17.80;;;;;;;;;;5055595;28;20206;-58
2022/03/24 11:49:16;;;;;;;22.90;17.70;;;;;;;;;;5055963;28;20225;-58
2022/03/24 11:51:42;;;;;;;23.02;18.02;;;;;;;;;;5037773;28;20575;-58
2022/03/24 11:54:09;;;;;;;25.98;17.15;;;;;;;;;;5054611;28;20737;-58
2022/03/24 11:56:34;;;;;;;22.67;17.20;;;;;;;;;;5055841;28;20692;-58
2022/03/24 11:59:00;;;;;;;22.23;17.33;;;;;;;;;;5055372;28;20203;-58
2022/03/24 12:01:29;;;;;;;25.10;18.33;;;;;;;;;;5054778;28;20288;-58
2022/03/24 12:03:56;;;;;;;26.17;19.48;;;;;;;;;;5055855;28;20282;-58
2022/03/24 12:06:43;;;;;;;28.10;19.88;;;;;;;;;;5054480;28;21159;-58
2022/03/24 12:09:09;;;;;;;25.42;18.55;;;;;;;;;;5054902;28;20357;-59
2022/03/24 12:11:35;;;;;;;26.45;18.05;;;;;;;;;;5056622;28;20289;-58
2022/03/24 12:14:00;;;;;;;26.17;18.05;;;;;;;;;;5074739;28;20256;-58
2022/03/24 12:16:26;;;;;;;22.08;16.50;;;;;;;;;;5074895;28;20295;-58
2022/03/24 12:18:52;;;;;;;24.52;18.50;;;;;;;;;;5083127;28;20217;-58
2022/03/24 12:21:22;;;;;;;25.90;18.85;;;;;;;;;;5075635;28;20206;-57
2022/03/24 12:24:02;;;;;;;23.63;17.52;;;;;;;;;;5095558;28;20213;-58
2022/03/24 12:26:28;;;;;;;24.52;19.33;;;;;;;;;;5095375;28;20254;-58
2022/03/24 12:29:10;;;;;;;26.88;18.98;;;;;;;;;;5094321;28;20225;-58
2022/03/24 12:31:56;;;;;;;25.77;18.83;;;;;;;;;;5095040;28;20271;-58
2022/03/24 12:34:21;;;;;;;25.35;18.50;;;;;;;;;;5094111;28;20297;-58
2022/03/24 12:36:46;;;;;;;29.25;17.33;;;;;;;;;;5095412;28;20293;-58
2022/03/24 12:39:13;;;;;;;25.38;17.33;;;;;;;;;;5076635;28;20244;-58
2022/03/24 12:41:38;;;;;;;24.17;17.08;;;;;;;;;;5094528;28;20225;-58
2022/03/24 12:44:04;;;;;;;22.05;16.40;;;;;;;;;;5094642;28;20698;-57
2022/03/24 12:46:33;;;;;;;19.70;15.38;;;;;;;;;;5075643;28;20214;-58
2022/03/24 12:49:07;;;;;;;19.13;14.20;;;;;;;;;;5073775;28;20222;-58
2022/03/24 12:51:32;;;;;;;21.38;15.65;;;;;;;;;;5082890;28;20292;-58
2022/03/24 12:53:58;;;;;;;21.75;15.27;;;;;;;;;;5094553;28;20748;-58
2022/03/24 12:56:26;;;;;;;22.83;14.20;;;;;;;;;;5093683;28;20232;-58
2022/03/24 12:58:52;;;;;;;22.38;15.80;;;;;;;;;;5072362;28;20233;-58
2022/03/24 13:01:18;;;;;;;21.02;13.45;;;;;;;;;;5062902;28;20217;-58
2022/03/24 13:03:44;;;;;;;22.80;13.45;;;;;;;;;;5053876;28;20211;-58
2022/03/24 13:06:09;;;;;;;18.55;12.68;;;;;;;;;;5053854;28;20215;-58
2022/03/24 13:08:35;;;;;;;20.40;13.57;;;;;;;;;;5036479;28;20226;-58
2022/03/24 13:11:03;;;;;;;20.20;12.23;;;;;;;;;;5053607;28;20218;-58
2022/03/24 13:13:29;;;;;;;20.75;11.73;;;;;;;;;;5037146;28;20207;-58
2022/03/24 13:15:54;;;;;;;18.40;11.63;;;;;;;;;;5053782;28;20322;-58
2022/03/24 13:18:19;;;;;;;19.58;11.05;;;;;;;;;;5053038;28;20314;-58
2022/03/24 13:20:48;;;;;;;21.30;13.50;;;;;;;;;;5036300;28;20207;-58
2022/03/24 13:23:13;;;;;;;20.48;13.90;;;;;;;;;;5053657;28;20219;-58
2022/03/24 13:25:40;;;;;;;16.75;9.60;;;;;;;;;;5053323;28;20215;-58
2022/03/24 13:28:06;;;;;;;19.05;10.00;;;;;;;;;;5053570;28;20722;-59
2022/03/24 13:30:32;;;;;;;17.27;10.23;;;;;;;;;;5056687;28;20575;-58
2022/03/24 13:33:02;;;;;;;19.45;12.35;;;;;;;;;;5074354;28;20662;-58
2022/03/24 13:35:28;;;;;;;18.80;12.60;;;;;;;;;;5073367;28;20215;-58
2022/03/24 13:37:54;;;;;;;24.48;13.38;;;;;;;;;;5073212;28;20221;-58
2022/03/24 13:40:20;;;;;;;21.75;10.35;;;;;;;;;;5073363;28;20210;-58
2022/03/24 13:42:46;;;;;;;16.38;6.47;;;;;;;;;;5073965;28;20288;-58
2022/03/24 13:45:11;;;;;;;18.52;8.00;;;;;;;;;;5079664;28;20667;-57
2022/03/24 13:47:41;;;;;;;16.02;9.30;;;;;;;;;;5094101;28;20205;-58
2022/03/24 13:50:07;;;;;;;16.52;8.75;;;;;;;;;;5093282;28;20253;-58
2022/03/24 13:52:32;;;;;;;17.20;9.98;;;;;;;;;;5092905;28;20233;-57
2022/03/24 13:55:00;;;;;;;18.70;9.35;;;;;;;;;;5073925;28;20233;-57
2022/03/24 13:57:25;;;;;;;18.23;10.82;;;;;;;;;;5073024;28;20308;-57
2022/03/24 13:59:52;;;;;;;19.30;8.82;;;;;;;;;;5060006;28;20314;-58
2022/03/24 14:02:21;;;;;;;19.63;8.38;;;;;;;;;;5052883;28;20282;-57
2022/03/24 14:05:00;;;;;;;18.80;9.88;;;;;;;;;;5052706;28;20215;-57
2022/03/24 14:07:25;;;;;;;20.55;8.98;;;;;;;;;;5052543;28;20242;-57
2022/03/24 14:09:54;;;;;;;21.83;9.75;;;;;;;;;;5035237;28;20712;-57
2022/03/24 14:12:20;;;;;;;19.50;10.00;;;;;;;;;;5058841;28;20211;-57
2022/03/24 14:14:46;;;;;;;21.15;11.50;;;;;;;;;;5051429;28;20268;-57